Time;durP1;ratioP1;P1;durP2;ratioP2;P2;SDS_P1;SDS_P2;PMS_P1;PMS_P2;Temp;Humidity;BMP_temperature;BMP_pressure;BME280_temperature;BME280_humidity;BME280_pressure;Samples;Min_cycle;Max_cycle;Signal;HPM_P1;HPM_P2
2022/08/28 00:01:51;;;;;;;19.63;16.17;;;;;;;;;;10121657;28;20071;-70
2022/08/28 00:06:44;;;;;;;16.17;14.48;;;;;;;;;;10133991;28;20404;-70
2022/08/28 00:11:38;;;;;;;16.80;15.10;;;;;;;;;;10150424;28;20645;-70
2022/08/28 00:16:32;;;;;;;18.65;15.88;;;;;;;;;;10168052;28;20418;-70
2022/08/28 00:21:25;;;;;;;18.30;15.73;;;;;;;;;;10134740;28;20040;-70
2022/08/28 00:31:31;;;;;;;18.00;16.10;;;;;;;;;;10125420;28;20044;-71
2022/08/28 00:36:27;;;;;;;17.92;16.10;;;;;;;;;;10151372;28;20049;-72
2022/08/28 00:41:21;;;;;;;19.30;16.95;;;;;;;;;;10131570;28;20056;-72
2022/08/28 00:46:21;;;;;;;17.92;16.08;;;;;;;;;;10128057;28;20048;-72
2022/08/28 00:56:30;;;;;;;16.48;14.75;;;;;;;;;;10141596;28;20131;-72
2022/08/28 01:01:24;;;;;;;16.15;14.52;;;;;;;;;;10146114;28;20102;-72
2022/08/28 01:06:19;;;;;;;16.00;13.48;;;;;;;;;;10141064;28;20052;-72
2022/08/28 01:11:15;;;;;;;16.75;15.00;;;;;;;;;;10143795;28;20052;-68
2022/08/28 01:16:12;;;;;;;17.97;14.73;;;;;;;;;;10153343;28;20127;-68
2022/08/28 01:21:30;;;;;;;16.23;14.60;;;;;;;;;;10149266;28;20053;-69
2022/08/28 01:26:25;;;;;;;15.27;13.52;;;;;;;;;;10141056;28;20053;-68
2022/08/28 01:31:20;;;;;;;20.63;16.92;;;;;;;;;;10143686;28;20052;-76
2022/08/28 01:36:14;;;;;;;21.25;15.52;;;;;;;;;;10136691;28;20037;-75
2022/08/28 01:41:08;;;;;;;15.57;14.10;;;;;;;;;;10151624;28;20052;-69
2022/08/28 01:46:05;;;;;;;16.73;15.02;;;;;;;;;;10134846;28;20053;-69
2022/08/28 01:50:59;;;;;;;19.95;14.98;;;;;;;;;;10141544;28;20094;-69
2022/08/28 01:55:53;;;;;;;20.83;17.42;;;;;;;;;;10139076;28;20521;-67
2022/08/28 02:00:48;;;;;;;20.35;17.48;;;;;;;;;;10150757;28;20102;-68
2022/08/28 02:05:42;;;;;;;18.42;16.33;;;;;;;;;;10138016;28;20364;-68
2022/08/28 02:10:37;;;;;;;19.50;17.55;;;;;;;;;;10150257;28;20053;-67
2022/08/28 02:15:32;;;;;;;17.05;15.25;;;;;;;;;;10156599;28;20408;-68
2022/08/28 02:20:27;;;;;;;17.25;15.45;;;;;;;;;;10150217;28;20052;-68
2022/08/28 02:25:21;;;;;;;18.92;16.98;;;;;;;;;;10149160;28;20083;-68
2022/08/28 02:30:16;;;;;;;20.70;18.52;;;;;;;;;;10133304;28;20053;-69
2022/08/28 02:35:10;;;;;;;20.98;17.80;;;;;;;;;;10130607;28;20110;-70
2022/08/28 02:40:06;;;;;;;18.52;16.13;;;;;;;;;;10137987;28;20128;-70
2022/08/28 02:45:01;;;;;;;20.70;18.52;;;;;;;;;;10150554;28;20067;-70
2022/08/28 02:49:55;;;;;;;24.00;19.05;;;;;;;;;;10149111;28;20495;-70
2022/08/28 02:54:50;;;;;;;21.45;17.73;;;;;;;;;;10140514;28;20068;-70
2022/08/28 02:59:44;;;;;;;21.20;17.67;;;;;;;;;;10138007;28;20048;-70
2022/08/28 03:04:38;;;;;;;22.92;18.60;;;;;;;;;;10137933;28;20048;-75
2022/08/28 03:09:32;;;;;;;20.02;17.98;;;;;;;;;;10139979;28;20060;-72
2022/08/28 03:14:27;;;;;;;20.17;18.00;;;;;;;;;;10147148;28;20049;-69
2022/08/28 03:19:24;;;;;;;20.63;18.50;;;;;;;;;;10139172;28;20079;-69
2022/08/28 03:24:18;;;;;;;21.85;17.60;;;;;;;;;;10139123;28;20048;-69
2022/08/28 03:29:11;;;;;;;19.10;17.35;;;;;;;;;;10141943;28;20483;-69
2022/08/28 03:34:06;;;;;;;20.63;18.52;;;;;;;;;;10139729;28;20095;-73
2022/08/28 03:39:02;;;;;;;18.48;16.77;;;;;;;;;;10126395;28;20068;-71
2022/08/28 03:43:57;;;;;;;19.02;17.02;;;;;;;;;;10150186;28;20491;-71
2022/08/28 03:48:53;;;;;;;22.17;19.13;;;;;;;;;;10145869;28;20052;-71
2022/08/28 03:53:48;;;;;;;18.98;16.95;;;;;;;;;;10143226;28;20052;-69
2022/08/28 03:58:42;;;;;;;17.13;15.32;;;;;;;;;;10134655;28;20495;-70
2022/08/28 04:03:35;;;;;;;18.77;16.63;;;;;;;;;;10136057;28;20495;-69
2022/08/28 04:08:29;;;;;;;15.65;14.15;;;;;;;;;;10141094;28;20133;-69
2022/08/28 04:13:23;;;;;;;19.45;16.23;;;;;;;;;;10140154;28;20403;-70
2022/08/28 04:18:17;;;;;;;15.68;14.07;;;;;;;;;;10145418;28;20447;-68
2022/08/28 04:23:11;;;;;;;16.85;14.77;;;;;;;;;;10141440;28;20173;-68
2022/08/28 04:28:05;;;;;;;13.93;12.63;;;;;;;;;;10144072;28;20051;-68
2022/08/28 04:32:59;;;;;;;13.15;11.70;;;;;;;;;;10143818;28;20052;-69
2022/08/28 04:37:52;;;;;;;12.80;11.50;;;;;;;;;;10129591;28;20526;-68
2022/08/28 04:42:51;;;;;;;13.38;12.10;;;;;;;;;;10124524;28;20053;-69
2022/08/28 04:47:45;;;;;;;12.15;10.98;;;;;;;;;;10130131;28;20044;-69
2022/08/28 04:52:38;;;;;;;11.70;10.55;;;;;;;;;;10119371;28;20044;-69
2022/08/28 04:57:33;;;;;;;12.00;10.55;;;;;;;;;;10120435;28;20053;-69
2022/08/28 05:02:28;;;;;;;10.40;8.82;;;;;;;;;;10117168;28;20045;-69
2022/08/28 05:07:22;;;;;;;9.57;8.50;;;;;;;;;;10120778;28;20514;-69
2022/08/28 05:12:16;;;;;;;10.75;8.73;;;;;;;;;;10121707;28;20478;-69
2022/08/28 05:17:12;;;;;;;11.80;9.80;;;;;;;;;;10151968;28;20399;-68
2022/08/28 05:22:05;;;;;;;10.00;9.05;;;;;;;;;;10152491;28;20458;-69
2022/08/28 05:27:03;;;;;;;13.50;9.98;;;;;;;;;;10130445;28;20061;-69
2022/08/28 05:31:57;;;;;;;13.27;10.07;;;;;;;;;;10143113;28;20047;-69
2022/08/28 05:36:50;;;;;;;10.57;8.93;;;;;;;;;;10152131;28;20071;-68
2022/08/28 05:41:45;;;;;;;11.35;9.10;;;;;;;;;;10139744;28;20072;-68
2022/08/28 05:46:42;;;;;;;10.52;9.55;;;;;;;;;;10148781;28;20045;-69
2022/08/28 05:51:39;;;;;;;10.90;9.55;;;;;;;;;;10144004;28;20048;-68
2022/08/28 05:56:36;;;;;;;12.52;10.02;;;;;;;;;;10145874;28;20531;-68
2022/08/28 06:01:32;;;;;;;11.38;9.73;;;;;;;;;;10138810;28;20051;-69
2022/08/28 06:06:29;;;;;;;12.57;10.25;;;;;;;;;;10144468;28;20127;-69
2022/08/28 06:11:23;;;;;;;12.13;11.02;;;;;;;;;;10132928;28;20513;-68
2022/08/28 06:16:16;;;;;;;15.98;10.63;;;;;;;;;;10116808;28;20095;-68
2022/08/28 06:21:10;;;;;;;10.82;9.00;;;;;;;;;;10120324;28;20076;-68
2022/08/28 06:26:04;;;;;;;10.15;9.07;;;;;;;;;;10125089;28;20048;-69
2022/08/28 06:31:02;;;;;;;9.13;7.65;;;;;;;;;;10123343;28;20049;-69
2022/08/28 06:36:15;;;;;;;9.70;8.70;;;;;;;;;;10128667;28;20246;-72
2022/08/28 06:41:09;;;;;;;11.07;9.63;;;;;;;;;;10113042;28;20522;-68
2022/08/28 06:46:02;;;;;;;10.98;10.07;;;;;;;;;;10122158;28;20055;-68
2022/08/28 06:50:57;;;;;;;13.45;9.60;;;;;;;;;;10125360;28;20098;-74
2022/08/28 06:56:27;;;;;;;11.32;10.23;;;;;;;;;;10132488;28;20459;-72
2022/08/28 07:01:30;;;;;;;13.25;12.02;;;;;;;;;;10056544;28;20102;-69
2022/08/28 07:06:30;;;;;;;12.98;11.57;;;;;;;;;;10118046;28;20050;-67
2022/08/28 07:11:27;;;;;;;14.73;11.45;;;;;;;;;;10116709;28;20076;-68
2022/08/28 07:16:26;;;;;;;14.68;10.50;;;;;;;;;;10117419;28;20073;-73
2022/08/28 07:21:20;;;;;;;11.88;10.77;;;;;;;;;;10132545;28;20526;-70
2022/08/28 07:26:17;;;;;;;12.45;11.25;;;;;;;;;;10125556;28;20056;-70
2022/08/28 07:31:31;;;;;;;11.75;10.73;;;;;;;;;;10126180;28;20463;-70
2022/08/28 07:36:27;;;;;;;15.45;11.50;;;;;;;;;;10120156;28;20058;-67
2022/08/28 07:41:24;;;;;;;12.70;9.93;;;;;;;;;;10118769;28;20047;-70
2022/08/28 07:46:18;;;;;;;10.95;8.82;;;;;;;;;;10124307;28;20131;-76
2022/08/28 07:51:13;;;;;;;8.60;6.72;;;;;;;;;;10131524;28;20048;-77
2022/08/28 07:56:07;;;;;;;7.57;6.93;;;;;;;;;;10132149;28;20400;-71
2022/08/28 08:01:01;;;;;;;9.48;6.70;;;;;;;;;;10131056;28;20557;-70
2022/08/28 08:05:58;;;;;;;11.40;6.03;;;;;;;;;;10128725;28;20060;-71
2022/08/28 08:11:05;;;;;;;6.18;5.57;;;;;;;;;;10132915;28;20139;-73
2022/08/28 08:16:10;;;;;;;6.88;6.05;;;;;;;;;;10134893;28;20093;-68
2022/08/28 08:21:05;;;;;;;6.47;5.82;;;;;;;;;;10117544;28;20503;-69
2022/08/28 08:26:04;;;;;;;7.75;5.75;;;;;;;;;;10130129;28;20061;-70
2022/08/28 08:31:20;;;;;;;9.18;6.95;;;;;;;;;;10137261;28;20491;-72
2022/08/28 08:36:22;;;;;;;7.50;6.30;;;;;;;;;;10120658;28;20128;-72
2022/08/28 08:41:46;;;;;;;6.55;5.85;;;;;;;;;;10122902;28;20033;-77
2022/08/28 08:46:45;;;;;;;6.80;5.50;;;;;;;;;;10135289;28;20048;-77
2022/08/28 08:51:42;;;;;;;5.65;5.13;;;;;;;;;;10119525;28;20396;-78
2022/08/28 08:56:36;;;;;;;8.07;5.15;;;;;;;;;;10131990;28;20056;-77
2022/08/28 09:01:58;;;;;;;9.32;5.45;;;;;;;;;;10113959;28;20048;-78
2022/08/28 09:07:01;;;;;;;7.72;6.07;;;;;;;;;;10128090;28;20064;-76
2022/08/28 09:11:58;;;;;;;5.25;4.75;;;;;;;;;;10146642;28;20052;-70
2022/08/28 09:16:52;;;;;;;4.55;3.65;;;;;;;;;;10128354;28;20523;-71
2022/08/28 09:21:48;;;;;;;6.60;4.38;;;;;;;;;;10133917;28;20079;-67
2022/08/28 09:26:42;;;;;;;5.00;3.58;;;;;;;;;;10145336;28;20053;-68
2022/08/28 09:31:39;;;;;;;4.18;2.95;;;;;;;;;;10141755;28;20490;-68
2022/08/28 09:36:37;;;;;;;6.60;4.30;;;;;;;;;;10151710;28;20095;-70
2022/08/28 09:46:46;;;;;;;6.97;3.90;;;;;;;;;;10139915;28;20059;-66
2022/08/28 09:51:40;;;;;;;6.13;3.97;;;;;;;;;;10136121;28;20044;-69
2022/08/28 09:56:38;;;;;;;5.20;3.15;;;;;;;;;;10139119;28;20052;-70
2022/08/28 10:01:41;;;;;;;6.15;4.30;;;;;;;;;;10142659;28;20518;-68
2022/08/28 10:06:39;;;;;;;6.25;5.65;;;;;;;;;;10137252;28;20508;-70
2022/08/28 10:11:46;;;;;;;10.13;6.53;;;;;;;;;;10140430;28;20135;-63
2022/08/28 10:17:16;;;;;;;7.70;6.93;;;;;;;;;;10140708;28;20045;-65
2022/08/28 10:22:51;;;;;;;9.82;6.82;;;;;;;;;;10142375;28;20045;-65
2022/08/28 10:27:48;;;;;;;7.55;6.28;;;;;;;;;;10119261;28;20114;-66
2022/08/28 10:33:11;;;;;;;8.35;6.18;;;;;;;;;;10140854;28;20041;-68
2022/08/28 10:38:11;;;;;;;8.73;7.80;;;;;;;;;;10135837;28;20045;-63
2022/08/28 10:43:32;;;;;;;10.30;9.30;;;;;;;;;;10144533;28;20088;-67
2022/08/28 10:48:35;;;;;;;8.02;6.22;;;;;;;;;;10131770;28;20133;-65
2022/08/28 10:53:29;;;;;;;10.65;8.75;;;;;;;;;;10125244;28;20102;-66
2022/08/28 10:58:43;;;;;;;11.45;9.63;;;;;;;;;;10143002;28;20492;-70
2022/08/28 11:03:45;;;;;;;9.07;7.15;;;;;;;;;;10137847;28;20043;-69
2022/08/28 11:08:39;;;;;;;8.52;6.93;;;;;;;;;;10128787;28;20106;-68
2022/08/28 11:13:45;;;;;;;8.95;6.10;;;;;;;;;;10134963;28;20098;-69
2022/08/28 11:18:48;;;;;;;9.57;6.57;;;;;;;;;;10127129;28;20056;-71
2022/08/28 11:24:01;;;;;;;14.13;9.48;;;;;;;;;;10128158;28;20053;-67
2022/08/28 11:28:55;;;;;;;10.30;6.38;;;;;;;;;;10132804;28;20060;-66
2022/08/28 11:33:51;;;;;;;7.68;5.00;;;;;;;;;;10124752;28;20107;-67
2022/08/28 11:38:56;;;;;;;6.22;4.18;;;;;;;;;;10130113;28;20106;-69
2022/08/28 11:44:13;;;;;;;8.38;7.05;;;;;;;;;;10131618;28;20136;-66
2022/08/28 11:49:26;;;;;;;3.97;3.58;;;;;;;;;;10135527;28;20414;-72
2022/08/28 11:54:58;;;;;;;5.70;3.88;;;;;;;;;;10138175;28;20135;-75
2022/08/28 12:00:03;;;;;;;4.47;3.55;;;;;;;;;;10127943;28;20048;-75
2022/08/28 12:04:58;;;;;;;6.97;4.17;;;;;;;;;;10135912;28;20106;-73
2022/08/28 12:09:53;;;;;;;9.25;3.72;;;;;;;;;;10138584;28;20466;-75
2022/08/28 12:14:45;;;;;;;4.88;3.67;;;;;;;;;;10133114;28;20479;-78
2022/08/28 12:19:52;;;;;;;3.80;3.10;;;;;;;;;;10132950;28;20048;-66
2022/08/28 12:24:55;;;;;;;3.70;2.15;;;;;;;;;;10133512;28;20041;-68
2022/08/28 12:29:53;;;;;;;4.82;2.58;;;;;;;;;;10133498;28;20101;-68
2022/08/28 12:34:51;;;;;;;4.07;2.28;;;;;;;;;;10141819;28;20091;-67
2022/08/28 12:39:45;;;;;;;6.40;2.17;;;;;;;;;;10144464;28;20048;-67
2022/08/28 12:44:40;;;;;;;7.93;2.90;;;;;;;;;;10126946;28;20060;-67
2022/08/28 12:49:37;;;;;;;2.92;2.28;;;;;;;;;;10121837;28;20040;-66
2022/08/28 12:54:30;;;;;;;6.88;2.33;;;;;;;;;;10118217;28;20049;-66
2022/08/28 12:59:48;;;;;;;5.55;2.72;;;;;;;;;;10137741;28;20094;-67
2022/08/28 13:04:48;;;;;;;7.40;2.50;;;;;;;;;;10126085;28;20044;-67
2022/08/28 13:09:47;;;;;;;3.92;2.80;;;;;;;;;;10136088;28;20079;-67
2022/08/28 13:14:44;;;;;;;3.10;2.10;;;;;;;;;;10145154;28;20064;-65
2022/08/28 13:19:39;;;;;;;4.30;2.75;;;;;;;;;;10137479;28;20147;-65
2022/08/28 13:24:38;;;;;;;4.63;2.83;;;;;;;;;;10151022;28;20044;-65
2022/08/28 13:29:32;;;;;;;5.97;2.58;;;;;;;;;;10141329;28;20107;-66
2022/08/28 13:34:31;;;;;;;5.70;2.97;;;;;;;;;;10133840;28;20512;-68
2022/08/28 13:39:25;;;;;;;3.00;2.70;;;;;;;;;;10131576;28;20411;-66
2022/08/28 13:44:32;;;;;;;5.20;3.40;;;;;;;;;;10140432;28;20086;-67
2022/08/28 13:49:26;;;;;;;7.43;3.33;;;;;;;;;;10139462;28;20411;-66
2022/08/28 13:54:20;;;;;;;4.95;3.58;;;;;;;;;;10142270;28;20499;-66
2022/08/28 13:59:14;;;;;;;4.03;3.22;;;;;;;;;;10140138;28;20049;-67
2022/08/28 14:04:08;;;;;;;4.10;2.95;;;;;;;;;;10135731;28;20049;-66
2022/08/28 14:09:01;;;;;;;3.75;3.03;;;;;;;;;;10145087;28;20388;-68
2022/08/28 14:13:56;;;;;;;5.65;2.95;;;;;;;;;;10143218;28;20127;-68
2022/08/28 14:18:51;;;;;;;8.85;3.72;;;;;;;;;;10137978;28;20053;-72
2022/08/28 14:23:45;;;;;;;3.83;3.10;;;;;;;;;;10134321;28;20050;-72
2022/08/28 14:28:39;;;;;;;5.28;3.20;;;;;;;;;;10136130;28;20080;-74
2022/08/28 14:33:34;;;;;;;4.90;3.53;;;;;;;;;;10129801;28;20059;-74
2022/08/28 14:38:28;;;;;;;4.20;3.72;;;;;;;;;;10131989;28;20071;-73
2022/08/28 14:43:23;;;;;;;3.53;3.05;;;;;;;;;;10135838;28;20072;-76
2022/08/28 14:48:17;;;;;;;4.82;4.13;;;;;;;;;;10132457;28;20053;-74
2022/08/28 14:53:11;;;;;;;3.33;2.85;;;;;;;;;;10134064;28;20044;-73
2022/08/28 14:58:05;;;;;;;14.85;5.03;;;;;;;;;;10134351;28;20041;-74
2022/08/28 15:02:59;;;;;;;7.03;4.43;;;;;;;;;;10137881;28;20059;-73
2022/08/28 15:07:54;;;;;;;6.25;4.20;;;;;;;;;;10145280;28;20521;-74
2022/08/28 15:12:48;;;;;;;4.05;3.33;;;;;;;;;;10139155;28;20403;-72
2022/08/28 15:17:44;;;;;;;4.53;3.67;;;;;;;;;;10128563;28;20396;-67
2022/08/28 15:22:39;;;;;;;3.38;3.08;;;;;;;;;;10134837;28;20052;-67
2022/08/28 15:27:32;;;;;;;7.50;3.25;;;;;;;;;;10132045;28;20061;-67
2022/08/28 15:32:30;;;;;;;2.92;2.10;;;;;;;;;;10125152;28;20033;-66
2022/08/28 15:37:28;;;;;;;2.63;2.42;;;;;;;;;;10125840;28;20048;-65
2022/08/28 15:42:24;;;;;;;4.88;2.30;;;;;;;;;;10134272;28;20044;-66
2022/08/28 15:47:21;;;;;;;5.03;2.30;;;;;;;;;;10139643;28;20446;-66
2022/08/28 15:52:15;;;;;;;3.65;2.58;;;;;;;;;;10144238;28;20048;-66
2022/08/28 15:57:13;;;;;;;3.45;2.72;;;;;;;;;;10141393;28;20140;-66
2022/08/28 16:02:08;;;;;;;3.85;2.33;;;;;;;;;;10137394;28;20381;-65
2022/08/28 16:07:02;;;;;;;5.45;2.05;;;;;;;;;;10135010;28;20056;-65
2022/08/28 16:11:55;;;;;;;4.15;2.17;;;;;;;;;;10123907;28;20072;-66
2022/08/28 16:16:49;;;;;;;3.20;1.88;;;;;;;;;;10126056;28;20068;-66
2022/08/28 16:21:45;;;;;;;4.15;2.05;;;;;;;;;;10130582;28;20053;-68
2022/08/28 16:26:39;;;;;;;2.60;1.88;;;;;;;;;;10138870;28;20461;-66
2022/08/28 16:31:33;;;;;;;4.47;2.28;;;;;;;;;;10133455;28;20051;-65
2022/08/28 16:36:27;;;;;;;2.03;1.85;;;;;;;;;;10140428;28;20388;-66
2022/08/28 16:41:22;;;;;;;2.53;2.15;;;;;;;;;;10132623;28;20076;-66
2022/08/28 16:46:22;;;;;;;2.95;2.20;;;;;;;;;;10151869;28;20049;-66
2022/08/28 16:51:15;;;;;;;6.63;1.67;;;;;;;;;;10138775;28;20083;-65
2022/08/28 16:56:34;;;;;;;3.53;2.38;;;;;;;;;;10152103;28;20052;-66
2022/08/28 17:01:28;;;;;;;7.18;2.50;;;;;;;;;;10142473;28;20041;-66
2022/08/28 17:06:27;;;;;;;2.25;1.90;;;;;;;;;;10142044;28;20519;-66
2022/08/28 17:11:21;;;;;;;3.15;1.95;;;;;;;;;;10145200;28;20047;-66
2022/08/28 17:16:15;;;;;;;5.35;1.95;;;;;;;;;;10148214;28;20086;-66
2022/08/28 17:26:22;;;;;;;3.22;2.63;;;;;;;;;;10141906;28;20549;-67
2022/08/28 17:31:15;;;;;;;3.67;2.17;;;;;;;;;;10151397;28;20051;-64
2022/08/28 17:36:11;;;;;;;4.85;1.80;;;;;;;;;;10144961;28;20056;-68
2022/08/28 17:41:24;;;;;;;1.75;1.60;;;;;;;;;;10137570;28;20090;-64
2022/08/28 17:46:18;;;;;;;4.38;1.50;;;;;;;;;;10128028;28;20048;-66
2022/08/28 17:51:14;;;;;;;5.47;1.60;;;;;;;;;;10134343;28;20113;-62
2022/08/28 17:56:11;;;;;;;4.35;1.77;;;;;;;;;;10136130;28;20053;-66
2022/08/28 18:01:06;;;;;;;3.72;1.75;;;;;;;;;;10144609;28;20487;-66
2022/08/28 18:06:01;;;;;;;3.78;1.88;;;;;;;;;;10147578;28;20053;-67
2022/08/28 18:10:55;;;;;;;1.80;1.70;;;;;;;;;;10141526;28;20135;-68
2022/08/28 18:15:50;;;;;;;4.80;2.15;;;;;;;;;;10140784;28;20044;-68
2022/08/28 18:20:49;;;;;;;4.88;1.92;;;;;;;;;;10144033;28;20479;-69
2022/08/28 18:25:47;;;;;;;2.22;1.48;;;;;;;;;;10145174;28;20576;-63
2022/08/28 18:30:44;;;;;;;3.03;1.90;;;;;;;;;;10141692;28;20090;-66
2022/08/28 18:35:38;;;;;;;4.07;1.85;;;;;;;;;;10132681;28;20094;-66
2022/08/28 18:40:38;;;;;;;5.68;1.98;;;;;;;;;;10127184;28;20503;-71
2022/08/28 18:45:32;;;;;;;5.80;3.00;;;;;;;;;;10138352;28;20083;-64
2022/08/28 18:50:28;;;;;;;3.30;2.10;;;;;;;;;;10135087;28;20052;-68
2022/08/28 18:55:23;;;;;;;1.95;1.67;;;;;;;;;;10128403;28;20059;-68
2022/08/28 19:00:18;;;;;;;3.00;2.40;;;;;;;;;;10143958;28;20517;-68
2022/08/28 19:05:13;;;;;;;2.38;1.92;;;;;;;;;;10133286;28;20514;-68
2022/08/28 19:10:07;;;;;;;3.25;2.05;;;;;;;;;;10134033;28;20076;-68
2022/08/28 19:15:20;;;;;;;4.82;2.40;;;;;;;;;;10136839;28;20128;-67
2022/08/28 19:20:19;;;;;;;3.33;2.83;;;;;;;;;;10135685;28;20084;-67
2022/08/28 19:25:21;;;;;;;2.28;1.98;;;;;;;;;;10124172;28;20060;-67
2022/08/28 19:30:22;;;;;;;5.50;2.17;;;;;;;;;;10135863;28;20052;-66
2022/08/28 19:35:18;;;;;;;3.70;2.33;;;;;;;;;;10138231;28;20044;-69
2022/08/28 19:40:19;;;;;;;2.10;1.90;;;;;;;;;;10127721;28;20098;-68
2022/08/28 19:45:16;;;;;;;4.72;2.55;;;;;;;;;;10127532;28;20058;-69
2022/08/28 19:50:13;;;;;;;3.85;2.65;;;;;;;;;;10130560;28;21228;-68
2022/08/28 19:55:11;;;;;;;2.67;2.40;;;;;;;;;;10127685;28;20741;-69
2022/08/28 20:00:12;;;;;;;3.20;2.70;;;;;;;;;;10128944;28;20064;-66
2022/08/28 20:05:09;;;;;;;4.63;3.22;;;;;;;;;;10133630;28;20511;-66
2022/08/28 20:10:05;;;;;;;4.90;2.90;;;;;;;;;;10129813;28;20053;-67
2022/08/28 20:15:00;;;;;;;6.07;2.90;;;;;;;;;;10116715;28;20060;-69
2022/08/28 20:20:16;;;;;;;6.60;3.25;;;;;;;;;;10118673;28;20051;-67
2022/08/28 20:25:11;;;;;;;4.40;2.80;;;;;;;;;;10122453;28;20116;-67
2022/08/28 20:30:06;;;;;;;4.72;2.85;;;;;;;;;;10132475;28;20079;-65
2022/08/28 20:35:06;;;;;;;5.65;2.90;;;;;;;;;;10118208;28;20080;-64
2022/08/28 20:40:01;;;;;;;4.90;2.85;;;;;;;;;;10123099;28;20083;-64
2022/08/28 20:45:02;;;;;;;5.88;3.20;;;;;;;;;;10128302;28;20057;-65
2022/08/28 20:49:57;;;;;;;4.65;3.47;;;;;;;;;;10134759;28;20045;-65
2022/08/28 20:54:51;;;;;;;4.45;3.00;;;;;;;;;;10128732;28;20610;-65
2022/08/28 20:59:46;;;;;;;6.18;2.85;;;;;;;;;;10132853;28;20049;-65
2022/08/28 21:04:40;;;;;;;6.20;3.33;;;;;;;;;;10133915;28;20075;-65
2022/08/28 21:09:34;;;;;;;4.45;3.30;;;;;;;;;;10122157;28;20487;-65
2022/08/28 21:14:51;;;;;;;3.70;3.03;;;;;;;;;;10127722;28;20083;-64
2022/08/28 21:19:45;;;;;;;4.35;3.10;;;;;;;;;;10133498;28;20059;-64
2022/08/28 21:24:41;;;;;;;8.63;3.08;;;;;;;;;;10136557;28;20063;-65
2022/08/28 21:29:35;;;;;;;5.10;3.47;;;;;;;;;;10149595;28;20423;-65
2022/08/28 21:34:28;;;;;;;5.65;3.83;;;;;;;;;;10137353;28;20037;-64
2022/08/28 21:39:22;;;;;;;4.15;3.75;;;;;;;;;;10136114;28;20060;-64
2022/08/28 21:44:16;;;;;;;4.53;4.10;;;;;;;;;;10133294;28;20068;-63
2022/08/28 21:49:10;;;;;;;7.35;3.60;;;;;;;;;;10137099;28;20231;-65
2022/08/28 21:54:04;;;;;;;6.32;3.15;;;;;;;;;;10134076;28;20079;-65
2022/08/28 21:58:57;;;;;;;4.38;2.40;;;;;;;;;;10138532;28;20051;-64
2022/08/28 22:03:51;;;;;;;4.13;3.22;;;;;;;;;;10124397;28;20080;-63
2022/08/28 22:08:45;;;;;;;2.90;2.70;;;;;;;;;;10128621;28;20048;-62
2022/08/28 22:13:39;;;;;;;3.35;2.72;;;;;;;;;;10138810;28;20052;-62
2022/08/28 22:18:36;;;;;;;5.50;2.90;;;;;;;;;;10139339;28;20458;-62
2022/08/28 22:23:33;;;;;;;5.68;3.80;;;;;;;;;;10140507;28;20432;-61
2022/08/28 22:28:28;;;;;;;4.55;3.08;;;;;;;;;;10127137;28;20049;-62
2022/08/28 22:33:23;;;;;;;2.95;2.75;;;;;;;;;;10136320;28;20052;-63
2022/08/28 22:38:16;;;;;;;5.28;3.33;;;;;;;;;;10136924;28;20415;-62
2022/08/28 22:43:11;;;;;;;5.18;3.13;;;;;;;;;;10140830;28;20548;-62
2022/08/28 22:48:06;;;;;;;4.63;2.72;;;;;;;;;;10145738;28;20044;-62
2022/08/28 22:53:01;;;;;;;3.50;3.20;;;;;;;;;;10136160;28;20052;-63
2022/08/28 22:57:58;;;;;;;4.05;2.83;;;;;;;;;;10122326;28;20048;-61
2022/08/28 23:02:52;;;;;;;4.57;3.25;;;;;;;;;;10139942;28;20450;-61
2022/08/28 23:07:46;;;;;;;4.25;3.88;;;;;;;;;;10147809;28;20060;-63
2022/08/28 23:12:40;;;;;;;5.28;4.20;;;;;;;;;;10140985;28;20052;-61
2022/08/28 23:17:33;;;;;;;6.28;4.78;;;;;;;;;;10148794;28;20047;-61
2022/08/28 23:22:30;;;;;;;9.52;4.28;;;;;;;;;;10145967;28;20491;-61
2022/08/28 23:27:23;;;;;;;5.70;3.95;;;;;;;;;;10139150;28;20462;-61
2022/08/28 23:32:28;;;;;;;5.18;4.30;;;;;;;;;;10119057;28;20045;-61
2022/08/28 23:37:25;;;;;;;7.00;5.30;;;;;;;;;;10132670;28;20052;-62
2022/08/28 23:42:19;;;;;;;5.40;4.90;;;;;;;;;;10138716;28;20546;-61
2022/08/28 23:47:13;;;;;;;6.50;4.38;;;;;;;;;;10136783;28;20048;-61
2022/08/28 23:52:07;;;;;;;7.32;5.50;;;;;;;;;;10146263;28;20048;-61
2022/08/28 23:57:02;;;;;;;5.10;4.68;;;;;;;;;;10143608;28;20457;-61
